sensor_id;sensor_type;location;lat;lon;timestamp;P1;durP1;ratioP1;P2;durP2;ratioP2
24745;SDS011;12845;52.042;6.838;2022-12-18T00:01:53;115.45;;;50.15;;
24745;SDS011;12845;52.042;6.838;2022-12-18T00:04:23;112.20;;;53.70;;
24745;SDS011;12845;52.042;6.838;2022-12-18T00:06:51;113.45;;;51.05;;
24745;SDS011;12845;52.042;6.838;2022-12-18T00:09:17;111.45;;;53.05;;
24745;SDS011;12845;52.042;6.838;2022-12-18T00:11:42;104.70;;;52.40;;
24745;SDS011;12845;52.042;6.838;2022-12-18T00:14:08;112.68;;;51.38;;
24745;SDS011;12845;52.042;6.838;2022-12-18T00:16:35;117.65;;;54.35;;
24745;SDS011;12845;52.042;6.838;2022-12-18T00:19:01;113.85;;;53.72;;
24745;SDS011;12845;52.042;6.838;2022-12-18T00:21:28;107.82;;;44.67;;
24745;SDS011;12845;52.042;6.838;2022-12-18T00:23:56;122.75;;;58.80;;
24745;SDS011;12845;52.042;6.838;2022-12-18T00:26:23;115.45;;;53.42;;
24745;SDS011;12845;52.042;6.838;2022-12-18T00:28:50;112.83;;;55.03;;
24745;SDS011;12845;52.042;6.838;2022-12-18T00:31:17;108.22;;;52.95;;
24745;SDS011;12845;52.042;6.838;2022-12-18T00:33:45;104.28;;;53.13;;
24745;SDS011;12845;52.042;6.838;2022-12-18T00:36:12;102.85;;;51.08;;
24745;SDS011;12845;52.042;6.838;2022-12-18T00:38:39;104.80;;;49.13;;
24745;SDS011;12845;52.042;6.838;2022-12-18T00:41:06;102.28;;;49.88;;
24745;SDS011;12845;52.042;6.838;2022-12-18T00:43:32;93.85;;;46.30;;
24745;SDS011;12845;52.042;6.838;2022-12-18T00:45:57;97.78;;;48.97;;
24745;SDS011;12845;52.042;6.838;2022-12-18T00:48:23;102.28;;;46.83;;
24745;SDS011;12845;52.042;6.838;2022-12-18T00:50:48;101.70;;;41.75;;
24745;SDS011;12845;52.042;6.838;2022-12-18T00:53:14;102.95;;;49.38;;
24745;SDS011;12845;52.042;6.838;2022-12-18T00:55:40;98.57;;;47.72;;
24745;SDS011;12845;52.042;6.838;2022-12-18T00:58:06;102.13;;;48.95;;
24745;SDS011;12845;52.042;6.838;2022-12-18T01:00:31;98.88;;;47.90;;
24745;SDS011;12845;52.042;6.838;2022-12-18T01:02:57;101.15;;;49.50;;
24745;SDS011;12845;52.042;6.838;2022-12-18T01:05:22;101.72;;;48.42;;
24745;SDS011;12845;52.042;6.838;2022-12-18T01:07:47;96.28;;;47.05;;
24745;SDS011;12845;52.042;6.838;2022-12-18T01:10:13;98.18;;;46.53;;
24745;SDS011;12845;52.042;6.838;2022-12-18T01:12:38;97.75;;;47.03;;
24745;SDS011;12845;52.042;6.838;2022-12-18T01:15:04;81.45;;;37.80;;
24745;SDS011;12845;52.042;6.838;2022-12-18T01:17:31;90.50;;;47.10;;
24745;SDS011;12845;52.042;6.838;2022-12-18T01:19:56;94.80;;;46.67;;
24745;SDS011;12845;52.042;6.838;2022-12-18T01:22:22;93.10;;;45.45;;
24745;SDS011;12845;52.042;6.838;2022-12-18T01:24:47;90.47;;;41.58;;
24745;SDS011;12845;52.042;6.838;2022-12-18T01:27:13;87.10;;;46.65;;
24745;SDS011;12845;52.042;6.838;2022-12-18T01:29:38;85.25;;;44.88;;
24745;SDS011;12845;52.042;6.838;2022-12-18T01:32:03;90.63;;;44.70;;
24745;SDS011;12845;52.042;6.838;2022-12-18T01:34:29;82.38;;;41.63;;
24745;SDS011;12845;52.042;6.838;2022-12-18T01:36:54;86.43;;;43.42;;
24745;SDS011;12845;52.042;6.838;2022-12-18T01:39:20;81.03;;;41.25;;
24745;SDS011;12845;52.042;6.838;2022-12-18T01:41:45;79.38;;;37.55;;
24745;SDS011;12845;52.042;6.838;2022-12-18T01:50:22;79.40;;;40.83;;
24745;SDS011;12845;52.042;6.838;2022-12-18T01:55:24;74.40;;;37.42;;
24745;SDS011;12845;52.042;6.838;2022-12-18T01:57:53;76.03;;;38.85;;
24745;SDS011;12845;52.042;6.838;2022-12-18T02:00:22;85.55;;;41.40;;
24745;SDS011;12845;52.042;6.838;2022-12-18T02:02:48;83.95;;;42.33;;
24745;SDS011;12845;52.042;6.838;2022-12-18T02:05:15;81.82;;;41.58;;
24745;SDS011;12845;52.042;6.838;2022-12-18T02:08:01;81.93;;;41.73;;
24745;SDS011;12845;52.042;6.838;2022-12-18T02:10:54;75.97;;;39.88;;
24745;SDS011;12845;52.042;6.838;2022-12-18T02:13:32;75.22;;;41.60;;
24745;SDS011;12845;52.042;6.838;2022-12-18T02:18:59;77.45;;;39.58;;
24745;SDS011;12845;52.042;6.838;2022-12-18T02:26:55;74.97;;;40.33;;
24745;SDS011;12845;52.042;6.838;2022-12-18T02:29:27;75.60;;;41.75;;
24745;SDS011;12845;52.042;6.838;2022-12-18T02:32:08;78.40;;;41.00;;
24745;SDS011;12845;52.042;6.838;2022-12-18T02:34:39;79.78;;;39.85;;
24745;SDS011;12845;52.042;6.838;2022-12-18T02:37:07;69.68;;;39.47;;
24745;SDS011;12845;52.042;6.838;2022-12-18T02:39:36;67.78;;;39.25;;
24745;SDS011;12845;52.042;6.838;2022-12-18T02:42:05;68.32;;;36.65;;
24745;SDS011;12845;52.042;6.838;2022-12-18T02:44:33;66.57;;;39.45;;
24745;SDS011;12845;52.042;6.838;2022-12-18T02:47:00;69.32;;;38.92;;
24745;SDS011;12845;52.042;6.838;2022-12-18T02:51:56;68.22;;;37.42;;
24745;SDS011;12845;52.042;6.838;2022-12-18T02:54:34;66.07;;;37.83;;
24745;SDS011;12845;52.042;6.838;2022-12-18T02:59:59;65.60;;;36.15;;
24745;SDS011;12845;52.042;6.838;2022-12-18T03:02:34;64.35;;;35.17;;
24745;SDS011;12845;52.042;6.838;2022-12-18T03:05:14;60.97;;;35.38;;
24745;SDS011;12845;52.042;6.838;2022-12-18T03:10:30;63.88;;;35.60;;
24745;SDS011;12845;52.042;6.838;2022-12-18T03:13:12;61.92;;;35.33;;
24745;SDS011;12845;52.042;6.838;2022-12-18T03:15:45;58.30;;;33.42;;
24745;SDS011;12845;52.042;6.838;2022-12-18T03:18:16;59.15;;;34.33;;
24745;SDS011;12845;52.042;6.838;2022-12-18T03:20:46;60.47;;;33.97;;
24745;SDS011;12845;52.042;6.838;2022-12-18T03:23:18;62.00;;;34.92;;
24745;SDS011;12845;52.042;6.838;2022-12-18T03:25:46;60.78;;;35.58;;
24745;SDS011;12845;52.042;6.838;2022-12-18T03:28:17;55.35;;;32.08;;
24745;SDS011;12845;52.042;6.838;2022-12-18T03:30:46;58.50;;;33.42;;
24745;SDS011;12845;52.042;6.838;2022-12-18T03:35:50;54.83;;;32.97;;
24745;SDS011;12845;52.042;6.838;2022-12-18T03:38:15;58.00;;;30.52;;
24745;SDS011;12845;52.042;6.838;2022-12-18T03:46:36;58.10;;;34.83;;
24745;SDS011;12845;52.042;6.838;2022-12-18T03:51:57;60.63;;;36.53;;
24745;SDS011;12845;52.042;6.838;2022-12-18T03:54:30;60.22;;;33.75;;
24745;SDS011;12845;52.042;6.838;2022-12-18T03:56:59;56.63;;;33.43;;
24745;SDS011;12845;52.042;6.838;2022-12-18T03:59:29;56.83;;;33.65;;
24745;SDS011;12845;52.042;6.838;2022-12-18T04:01:56;51.80;;;32.55;;
24745;SDS011;12845;52.042;6.838;2022-12-18T04:04:24;54.35;;;31.65;;
24745;SDS011;12845;52.042;6.838;2022-12-18T04:06:52;53.27;;;34.63;;
24745;SDS011;12845;52.042;6.838;2022-12-18T04:09:19;53.97;;;33.25;;
24745;SDS011;12845;52.042;6.838;2022-12-18T04:11:46;48.25;;;28.75;;
24745;SDS011;12845;52.042;6.838;2022-12-18T04:14:12;55.00;;;32.35;;
24745;SDS011;12845;52.042;6.838;2022-12-18T04:16:37;49.03;;;30.70;;
24745;SDS011;12845;52.042;6.838;2022-12-18T04:19:03;50.22;;;32.10;;
24745;SDS011;12845;52.042;6.838;2022-12-18T04:21:29;51.03;;;31.48;;
24745;SDS011;12845;52.042;6.838;2022-12-18T04:23:54;50.42;;;29.50;;
24745;SDS011;12845;52.042;6.838;2022-12-18T04:26:20;53.60;;;32.15;;
24745;SDS011;12845;52.042;6.838;2022-12-18T04:28:45;49.05;;;28.50;;
24745;SDS011;12845;52.042;6.838;2022-12-18T04:31:11;48.30;;;29.48;;
24745;SDS011;12845;52.042;6.838;2022-12-18T04:33:36;53.78;;;29.65;;
24745;SDS011;12845;52.042;6.838;2022-12-18T04:36:02;48.90;;;28.35;;
24745;SDS011;12845;52.042;6.838;2022-12-18T04:38:27;46.58;;;29.67;;
24745;SDS011;12845;52.042;6.838;2022-12-18T04:40:53;53.08;;;30.58;;
24745;SDS011;12845;52.042;6.838;2022-12-18T04:43:18;45.75;;;25.17;;
24745;SDS011;12845;52.042;6.838;2022-12-18T04:45:43;47.03;;;29.70;;
24745;SDS011;12845;52.042;6.838;2022-12-18T04:48:09;47.90;;;26.33;;
24745;SDS011;12845;52.042;6.838;2022-12-18T04:50:34;50.60;;;29.98;;
24745;SDS011;12845;52.042;6.838;2022-12-18T04:53:03;42.97;;;28.42;;
24745;SDS011;12845;52.042;6.838;2022-12-18T04:55:28;46.38;;;28.25;;
24745;SDS011;12845;52.042;6.838;2022-12-18T04:57:56;48.10;;;28.17;;
24745;SDS011;12845;52.042;6.838;2022-12-18T05:00:21;50.83;;;29.98;;
24745;SDS011;12845;52.042;6.838;2022-12-18T05:02:47;47.65;;;27.10;;
24745;SDS011;12845;52.042;6.838;2022-12-18T05:05:13;44.95;;;28.25;;
24745;SDS011;12845;52.042;6.838;2022-12-18T05:07:38;40.17;;;22.60;;
24745;SDS011;12845;52.042;6.838;2022-12-18T05:10:04;46.70;;;28.05;;
24745;SDS011;12845;52.042;6.838;2022-12-18T05:12:30;42.95;;;25.75;;
24745;SDS011;12845;52.042;6.838;2022-12-18T05:14:56;44.25;;;28.52;;
24745;SDS011;12845;52.042;6.838;2022-12-18T05:17:21;42.63;;;26.05;;
24745;SDS011;12845;52.042;6.838;2022-12-18T05:19:47;40.08;;;25.83;;
24745;SDS011;12845;52.042;6.838;2022-12-18T05:22:12;39.17;;;25.95;;
24745;SDS011;12845;52.042;6.838;2022-12-18T05:24:38;43.25;;;25.85;;
24745;SDS011;12845;52.042;6.838;2022-12-18T05:27:03;41.20;;;24.60;;
24745;SDS011;12845;52.042;6.838;2022-12-18T05:29:28;41.50;;;27.10;;
24745;SDS011;12845;52.042;6.838;2022-12-18T05:31:54;41.90;;;26.13;;
24745;SDS011;12845;52.042;6.838;2022-12-18T05:34:19;39.10;;;23.50;;
24745;SDS011;12845;52.042;6.838;2022-12-18T05:36:44;36.45;;;24.83;;
24745;SDS011;12845;52.042;6.838;2022-12-18T05:39:10;35.88;;;22.35;;
24745;SDS011;12845;52.042;6.838;2022-12-18T05:41:35;39.42;;;24.80;;
24745;SDS011;12845;52.042;6.838;2022-12-18T05:44:01;37.60;;;25.00;;
24745;SDS011;12845;52.042;6.838;2022-12-18T05:46:26;39.72;;;27.02;;
24745;SDS011;12845;52.042;6.838;2022-12-18T05:48:51;33.35;;;21.58;;
24745;SDS011;12845;52.042;6.838;2022-12-18T05:51:18;35.90;;;21.88;;
24745;SDS011;12845;52.042;6.838;2022-12-18T05:53:45;34.70;;;22.25;;
24745;SDS011;12845;52.042;6.838;2022-12-18T05:56:12;38.13;;;20.83;;
24745;SDS011;12845;52.042;6.838;2022-12-18T05:58:39;36.63;;;24.40;;
24745;SDS011;12845;52.042;6.838;2022-12-18T06:01:06;33.35;;;21.73;;
24745;SDS011;12845;52.042;6.838;2022-12-18T06:06:00;33.55;;;20.17;;
24745;SDS011;12845;52.042;6.838;2022-12-18T06:08:25;34.50;;;21.67;;
24745;SDS011;12845;52.042;6.838;2022-12-18T06:10:51;37.03;;;23.77;;
24745;SDS011;12845;52.042;6.838;2022-12-18T06:13:20;31.02;;;19.10;;
24745;SDS011;12845;52.042;6.838;2022-12-18T06:15:46;34.97;;;22.58;;
24745;SDS011;12845;52.042;6.838;2022-12-18T06:18:11;33.67;;;22.13;;
24745;SDS011;12845;52.042;6.838;2022-12-18T06:20:37;37.03;;;24.08;;
24745;SDS011;12845;52.042;6.838;2022-12-18T06:23:07;32.00;;;22.02;;
24745;SDS011;12845;52.042;6.838;2022-12-18T06:25:33;35.13;;;22.52;;
24745;SDS011;12845;52.042;6.838;2022-12-18T06:27:58;40.20;;;25.20;;
24745;SDS011;12845;52.042;6.838;2022-12-18T06:30:24;36.72;;;21.98;;
24745;SDS011;12845;52.042;6.838;2022-12-18T06:32:49;35.10;;;21.55;;
24745;SDS011;12845;52.042;6.838;2022-12-18T06:35:15;33.40;;;19.98;;
24745;SDS011;12845;52.042;6.838;2022-12-18T06:37:40;31.80;;;20.38;;
24745;SDS011;12845;52.042;6.838;2022-12-18T06:40:06;34.80;;;24.15;;
24745;SDS011;12845;52.042;6.838;2022-12-18T06:42:32;35.80;;;23.77;;
24745;SDS011;12845;52.042;6.838;2022-12-18T06:44:58;35.75;;;22.70;;
24745;SDS011;12845;52.042;6.838;2022-12-18T06:47:23;34.88;;;19.90;;
24745;SDS011;12845;52.042;6.838;2022-12-18T06:49:49;34.05;;;20.92;;
24745;SDS011;12845;52.042;6.838;2022-12-18T06:52:14;39.53;;;23.40;;
24745;SDS011;12845;52.042;6.838;2022-12-18T06:54:39;31.13;;;19.50;;
24745;SDS011;12845;52.042;6.838;2022-12-18T06:57:05;34.35;;;22.33;;
24745;SDS011;12845;52.042;6.838;2022-12-18T06:59:30;34.55;;;20.27;;
24745;SDS011;12845;52.042;6.838;2022-12-18T07:01:56;32.05;;;19.92;;
24745;SDS011;12845;52.042;6.838;2022-12-18T07:04:21;28.58;;;21.05;;
24745;SDS011;12845;52.042;6.838;2022-12-18T07:06:46;35.65;;;21.45;;
24745;SDS011;12845;52.042;6.838;2022-12-18T07:09:12;34.78;;;22.58;;
24745;SDS011;12845;52.042;6.838;2022-12-18T07:11:37;32.13;;;21.23;;
24745;SDS011;12845;52.042;6.838;2022-12-18T07:14:02;29.52;;;19.58;;
24745;SDS011;12845;52.042;6.838;2022-12-18T07:16:28;28.92;;;18.15;;
24745;SDS011;12845;52.042;6.838;2022-12-18T07:18:56;31.15;;;19.02;;
24745;SDS011;12845;52.042;6.838;2022-12-18T07:21:22;27.67;;;19.55;;
24745;SDS011;12845;52.042;6.838;2022-12-18T07:23:48;30.50;;;20.02;;
24745;SDS011;12845;52.042;6.838;2022-12-18T07:26:14;32.70;;;20.48;;
24745;SDS011;12845;52.042;6.838;2022-12-18T07:28:41;28.25;;;20.88;;
24745;SDS011;12845;52.042;6.838;2022-12-18T07:31:07;30.23;;;20.38;;
24745;SDS011;12845;52.042;6.838;2022-12-18T07:33:33;26.33;;;19.00;;
24745;SDS011;12845;52.042;6.838;2022-12-18T07:35:59;34.00;;;20.88;;
24745;SDS011;12845;52.042;6.838;2022-12-18T07:38:26;27.48;;;19.25;;
24745;SDS011;12845;52.042;6.838;2022-12-18T07:40:51;27.35;;;19.83;;
24745;SDS011;12845;52.042;6.838;2022-12-18T07:43:17;30.30;;;20.88;;
24745;SDS011;12845;52.042;6.838;2022-12-18T07:45:42;29.05;;;19.65;;
24745;SDS011;12845;52.042;6.838;2022-12-18T07:48:08;28.40;;;21.00;;
24745;SDS011;12845;52.042;6.838;2022-12-18T07:50:34;28.77;;;20.92;;
24745;SDS011;12845;52.042;6.838;2022-12-18T07:52:59;26.88;;;21.27;;
24745;SDS011;12845;52.042;6.838;2022-12-18T07:55:29;25.58;;;17.83;;
24745;SDS011;12845;52.042;6.838;2022-12-18T07:57:55;28.73;;;19.35;;
24745;SDS011;12845;52.042;6.838;2022-12-18T08:00:21;30.05;;;20.92;;
24745;SDS011;12845;52.042;6.838;2022-12-18T08:02:46;29.77;;;19.50;;
24745;SDS011;12845;52.042;6.838;2022-12-18T08:05:11;27.30;;;22.02;;
24745;SDS011;12845;52.042;6.838;2022-12-18T08:07:38;29.88;;;21.23;;
24745;SDS011;12845;52.042;6.838;2022-12-18T08:10:03;30.17;;;22.35;;
24745;SDS011;12845;52.042;6.838;2022-12-18T08:12:28;31.75;;;23.52;;
24745;SDS011;12845;52.042;6.838;2022-12-18T08:14:54;32.28;;;22.65;;
24745;SDS011;12845;52.042;6.838;2022-12-18T08:17:19;31.90;;;21.02;;
24745;SDS011;12845;52.042;6.838;2022-12-18T08:19:45;28.73;;;19.58;;
24745;SDS011;12845;52.042;6.838;2022-12-18T08:22:10;28.50;;;17.67;;
24745;SDS011;12845;52.042;6.838;2022-12-18T08:24:35;27.42;;;21.55;;
24745;SDS011;12845;52.042;6.838;2022-12-18T08:27:01;25.05;;;19.17;;
24745;SDS011;12845;52.042;6.838;2022-12-18T08:29:26;25.83;;;20.55;;
24745;SDS011;12845;52.042;6.838;2022-12-18T08:31:54;28.52;;;17.88;;
24745;SDS011;12845;52.042;6.838;2022-12-18T08:34:19;26.33;;;19.67;;
24745;SDS011;12845;52.042;6.838;2022-12-18T08:36:44;29.30;;;17.20;;
24745;SDS011;12845;52.042;6.838;2022-12-18T08:39:10;25.90;;;18.48;;
24745;SDS011;12845;52.042;6.838;2022-12-18T08:41:35;21.83;;;15.32;;
24745;SDS011;12845;52.042;6.838;2022-12-18T08:44:01;25.83;;;17.05;;
24745;SDS011;12845;52.042;6.838;2022-12-18T08:46:45;24.15;;;17.48;;
24745;SDS011;12845;52.042;6.838;2022-12-18T08:49:10;23.80;;;16.42;;
24745;SDS011;12845;52.042;6.838;2022-12-18T08:51:37;20.58;;;16.50;;
24745;SDS011;12845;52.042;6.838;2022-12-18T08:54:03;22.95;;;16.80;;
24745;SDS011;12845;52.042;6.838;2022-12-18T08:56:29;24.52;;;16.85;;
24745;SDS011;12845;52.042;6.838;2022-12-18T08:58:56;23.90;;;17.48;;
24745;SDS011;12845;52.042;6.838;2022-12-18T09:01:21;22.77;;;15.43;;
24745;SDS011;12845;52.042;6.838;2022-12-18T09:03:50;22.05;;;15.05;;
24745;SDS011;12845;52.042;6.838;2022-12-18T09:06:16;21.30;;;14.88;;
24745;SDS011;12845;52.042;6.838;2022-12-18T09:08:43;19.10;;;13.35;;
24745;SDS011;12845;52.042;6.838;2022-12-18T09:11:19;20.33;;;14.30;;
24745;SDS011;12845;52.042;6.838;2022-12-18T09:13:49;19.35;;;13.30;;
24745;SDS011;12845;52.042;6.838;2022-12-18T09:16:15;16.98;;;11.10;;
24745;SDS011;12845;52.042;6.838;2022-12-18T09:18:41;17.83;;;12.32;;
24745;SDS011;12845;52.042;6.838;2022-12-18T09:21:10;17.35;;;11.25;;
24745;SDS011;12845;52.042;6.838;2022-12-18T09:23:38;15.75;;;11.32;;
24745;SDS011;12845;52.042;6.838;2022-12-18T09:26:04;16.75;;;10.98;;
24745;SDS011;12845;52.042;6.838;2022-12-18T09:28:29;19.05;;;10.82;;
24745;SDS011;12845;52.042;6.838;2022-12-18T09:30:55;16.10;;;10.15;;
24745;SDS011;12845;52.042;6.838;2022-12-18T09:33:20;14.65;;;10.00;;
24745;SDS011;12845;52.042;6.838;2022-12-18T09:35:46;14.43;;;10.80;;
24745;SDS011;12845;52.042;6.838;2022-12-18T09:38:15;13.13;;;9.75;;
24745;SDS011;12845;52.042;6.838;2022-12-18T09:40:43;14.43;;;9.60;;
24745;SDS011;12845;52.042;6.838;2022-12-18T09:43:14;19.58;;;12.73;;
24745;SDS011;12845;52.042;6.838;2022-12-18T09:46:03;14.35;;;10.20;;
24745;SDS011;12845;52.042;6.838;2022-12-18T09:48:36;13.68;;;9.07;;
24745;SDS011;12845;52.042;6.838;2022-12-18T09:54:03;12.15;;;8.90;;
24745;SDS011;12845;52.042;6.838;2022-12-18T09:56:38;12.07;;;8.02;;
24745;SDS011;12845;52.042;6.838;2022-12-18T09:59:13;12.70;;;9.13;;
24745;SDS011;12845;52.042;6.838;2022-12-18T10:01:45;13.05;;;7.88;;
24745;SDS011;12845;52.042;6.838;2022-12-18T10:04:10;11.27;;;7.47;;
24745;SDS011;12845;52.042;6.838;2022-12-18T10:07:19;12.05;;;9.13;;
24745;SDS011;12845;52.042;6.838;2022-12-18T10:09:38;13.68;;;8.98;;
24745;SDS011;12845;52.042;6.838;2022-12-18T10:12:21;13.70;;;8.95;;
24745;SDS011;12845;52.042;6.838;2022-12-18T10:15:04;16.33;;;10.35;;
24745;SDS011;12845;52.042;6.838;2022-12-18T10:20:16;24.63;;;16.42;;
24745;SDS011;12845;52.042;6.838;2022-12-18T10:25:23;17.70;;;10.88;;
24745;SDS011;12845;52.042;6.838;2022-12-18T10:27:58;16.27;;;10.25;;
24745;SDS011;12845;52.042;6.838;2022-12-18T10:30:32;33.50;;;18.83;;
24745;SDS011;12845;52.042;6.838;2022-12-18T10:33:04;22.48;;;13.40;;
24745;SDS011;12845;52.042;6.838;2022-12-18T10:35:29;16.95;;;10.32;;
24745;SDS011;12845;52.042;6.838;2022-12-18T10:40:54;10.77;;;8.15;;
24745;SDS011;12845;52.042;6.838;2022-12-18T10:43:21;11.70;;;8.30;;
24745;SDS011;12845;52.042;6.838;2022-12-18T10:48:23;11.10;;;7.78;;
24745;SDS011;12845;52.042;6.838;2022-12-18T10:50:49;12.05;;;6.65;;
24745;SDS011;12845;52.042;6.838;2022-12-18T10:53:21;9.63;;;6.97;;
24745;SDS011;12845;52.042;6.838;2022-12-18T10:55:47;9.60;;;6.55;;
24745;SDS011;12845;52.042;6.838;2022-12-18T10:58:21;9.88;;;6.82;;
24745;SDS011;12845;52.042;6.838;2022-12-18T11:01:11;10.35;;;8.02;;
24745;SDS011;12845;52.042;6.838;2022-12-18T11:03:47;9.57;;;7.18;;
24745;SDS011;12845;52.042;6.838;2022-12-18T11:06:25;12.20;;;7.43;;
24745;SDS011;12845;52.042;6.838;2022-12-18T11:09:00;11.98;;;8.38;;
24745;SDS011;12845;52.042;6.838;2022-12-18T11:11:31;10.15;;;7.53;;
24745;SDS011;12845;52.042;6.838;2022-12-18T11:14:04;11.10;;;7.28;;
24745;SDS011;12845;52.042;6.838;2022-12-18T11:16:36;11.57;;;7.97;;
24745;SDS011;12845;52.042;6.838;2022-12-18T11:19:30;9.38;;;7.15;;
24745;SDS011;12845;52.042;6.838;2022-12-18T11:21:56;11.32;;;7.10;;
24745;SDS011;12845;52.042;6.838;2022-12-18T11:24:27;10.20;;;6.95;;
24745;SDS011;12845;52.042;6.838;2022-12-18T11:26:54;13.25;;;7.82;;
24745;SDS011;12845;52.042;6.838;2022-12-18T11:29:28;11.65;;;7.40;;
24745;SDS011;12845;52.042;6.838;2022-12-18T11:37:29;10.77;;;6.63;;
24745;SDS011;12845;52.042;6.838;2022-12-18T11:39:56;10.70;;;6.53;;
24745;SDS011;12845;52.042;6.838;2022-12-18T11:42:39;10.13;;;7.38;;
24745;SDS011;12845;52.042;6.838;2022-12-18T11:50:28;9.63;;;6.30;;
24745;SDS011;12845;52.042;6.838;2022-12-18T11:52:58;9.60;;;6.70;;
24745;SDS011;12845;52.042;6.838;2022-12-18T12:06:09;9.27;;;6.03;;
24745;SDS011;12845;52.042;6.838;2022-12-18T12:09:00;10.20;;;6.55;;
24745;SDS011;12845;52.042;6.838;2022-12-18T12:11:50;11.18;;;7.85;;
24745;SDS011;12845;52.042;6.838;2022-12-18T12:30:45;8.23;;;5.47;;
24745;SDS011;12845;52.042;6.838;2022-12-18T12:33:20;10.40;;;6.72;;
24745;SDS011;12845;52.042;6.838;2022-12-18T12:39:02;20.40;;;13.93;;
24745;SDS011;12845;52.042;6.838;2022-12-18T12:41:30;15.82;;;11.10;;
24745;SDS011;12845;52.042;6.838;2022-12-18T12:44:22;19.48;;;13.65;;
24745;SDS011;12845;52.042;6.838;2022-12-18T12:46:49;16.90;;;12.38;;
24745;SDS011;12845;52.042;6.838;2022-12-18T12:49:20;13.25;;;9.38;;
24745;SDS011;12845;52.042;6.838;2022-12-18T12:51:50;12.40;;;8.27;;
24745;SDS011;12845;52.042;6.838;2022-12-18T12:54:23;13.10;;;9.07;;
24745;SDS011;12845;52.042;6.838;2022-12-18T12:56:54;13.15;;;8.80;;
24745;SDS011;12845;52.042;6.838;2022-12-18T12:59:26;10.40;;;6.72;;
24745;SDS011;12845;52.042;6.838;2022-12-18T13:04:56;9.97;;;6.90;;
24745;SDS011;12845;52.042;6.838;2022-12-18T13:07:27;9.32;;;7.07;;
24745;SDS011;12845;52.042;6.838;2022-12-18T13:15:36;9.45;;;5.55;;
24745;SDS011;12845;52.042;6.838;2022-12-18T13:20:35;8.63;;;5.30;;
24745;SDS011;12845;52.042;6.838;2022-12-18T13:23:19;10.55;;;6.55;;
24745;SDS011;12845;52.042;6.838;2022-12-18T13:25:47;9.05;;;5.90;;
24745;SDS011;12845;52.042;6.838;2022-12-18T13:28:18;11.10;;;6.72;;
24745;SDS011;12845;52.042;6.838;2022-12-18T13:30:49;9.43;;;6.88;;
24745;SDS011;12845;52.042;6.838;2022-12-18T13:40:57;9.60;;;5.90;;
24745;SDS011;12845;52.042;6.838;2022-12-18T13:43:27;9.13;;;6.10;;
24745;SDS011;12845;52.042;6.838;2022-12-18T13:48:24;9.60;;;5.63;;
24745;SDS011;12845;52.042;6.838;2022-12-18T13:53:35;9.02;;;5.63;;
24745;SDS011;12845;52.042;6.838;2022-12-18T13:56:14;8.80;;;6.60;;
24745;SDS011;12845;52.042;6.838;2022-12-18T13:58:41;12.43;;;6.60;;
24745;SDS011;12845;52.042;6.838;2022-12-18T14:01:15;11.98;;;6.20;;
24745;SDS011;12845;52.042;6.838;2022-12-18T14:03:47;9.57;;;6.82;;
24745;SDS011;12845;52.042;6.838;2022-12-18T14:06:12;9.98;;;5.97;;
24745;SDS011;12845;52.042;6.838;2022-12-18T14:08:38;11.45;;;7.25;;
24745;SDS011;12845;52.042;6.838;2022-12-18T14:11:05;8.25;;;6.05;;
24745;SDS011;12845;52.042;6.838;2022-12-18T14:13:33;9.88;;;6.45;;
24745;SDS011;12845;52.042;6.838;2022-12-18T14:16:02;10.10;;;6.85;;
24745;SDS011;12845;52.042;6.838;2022-12-18T14:18:43;11.38;;;7.00;;
24745;SDS011;12845;52.042;6.838;2022-12-18T14:21:21;10.15;;;6.70;;
24745;SDS011;12845;52.042;6.838;2022-12-18T14:24:02;11.85;;;7.15;;
24745;SDS011;12845;52.042;6.838;2022-12-18T14:26:39;10.00;;;6.32;;
24745;SDS011;12845;52.042;6.838;2022-12-18T14:31:44;11.43;;;7.50;;
24745;SDS011;12845;52.042;6.838;2022-12-18T14:34:16;9.25;;;6.50;;
24745;SDS011;12845;52.042;6.838;2022-12-18T14:36:44;12.27;;;8.52;;
24745;SDS011;12845;52.042;6.838;2022-12-18T14:39:17;11.27;;;8.85;;
24745;SDS011;12845;52.042;6.838;2022-12-18T14:41:43;12.38;;;6.63;;
24745;SDS011;12845;52.042;6.838;2022-12-18T14:44:11;10.85;;;7.53;;
24745;SDS011;12845;52.042;6.838;2022-12-18T14:49:30;12.10;;;7.80;;
24745;SDS011;12845;52.042;6.838;2022-12-18T14:51:58;11.52;;;7.10;;
24745;SDS011;12845;52.042;6.838;2022-12-18T14:54:25;9.80;;;7.07;;
24745;SDS011;12845;52.042;6.838;2022-12-18T14:56:57;14.13;;;7.85;;
24745;SDS011;12845;52.042;6.838;2022-12-18T14:59:24;10.82;;;7.07;;
24745;SDS011;12845;52.042;6.838;2022-12-18T15:04:40;11.57;;;7.23;;
24745;SDS011;12845;52.042;6.838;2022-12-18T15:07:23;9.93;;;6.90;;
24745;SDS011;12845;52.042;6.838;2022-12-18T15:12:44;12.88;;;9.35;;
24745;SDS011;12845;52.042;6.838;2022-12-18T15:17:58;13.52;;;9.52;;
24745;SDS011;12845;52.042;6.838;2022-12-18T15:20:24;14.07;;;10.05;;
24745;SDS011;12845;52.042;6.838;2022-12-18T15:22:49;11.50;;;8.27;;
24745;SDS011;12845;52.042;6.838;2022-12-18T15:25:29;10.88;;;8.43;;
24745;SDS011;12845;52.042;6.838;2022-12-18T15:27:59;10.93;;;7.85;;
24745;SDS011;12845;52.042;6.838;2022-12-18T15:30:24;13.88;;;9.90;;
24745;SDS011;12845;52.042;6.838;2022-12-18T15:32:51;14.38;;;10.30;;
24745;SDS011;12845;52.042;6.838;2022-12-18T15:35:21;16.50;;;9.85;;
24745;SDS011;12845;52.042;6.838;2022-12-18T15:37:46;12.80;;;8.80;;
24745;SDS011;12845;52.042;6.838;2022-12-18T15:40:16;15.45;;;10.95;;
24745;SDS011;12845;52.042;6.838;2022-12-18T15:42:41;15.88;;;10.77;;
24745;SDS011;12845;52.042;6.838;2022-12-18T15:45:26;14.80;;;9.75;;
24745;SDS011;12845;52.042;6.838;2022-12-18T15:47:52;15.38;;;11.95;;
24745;SDS011;12845;52.042;6.838;2022-12-18T15:50:17;15.07;;;11.50;;
24745;SDS011;12845;52.042;6.838;2022-12-18T15:52:43;17.23;;;12.02;;
24745;SDS011;12845;52.042;6.838;2022-12-18T15:55:14;17.25;;;11.85;;
24745;SDS011;12845;52.042;6.838;2022-12-18T15:58:00;14.57;;;10.35;;
24745;SDS011;12845;52.042;6.838;2022-12-18T16:00:25;17.35;;;11.73;;
24745;SDS011;12845;52.042;6.838;2022-12-18T16:02:51;16.65;;;11.60;;
24745;SDS011;12845;52.042;6.838;2022-12-18T16:05:18;14.48;;;10.52;;
24745;SDS011;12845;52.042;6.838;2022-12-18T16:07:49;17.52;;;11.02;;
24745;SDS011;12845;52.042;6.838;2022-12-18T16:10:14;19.25;;;13.10;;
24745;SDS011;12845;52.042;6.838;2022-12-18T16:12:40;16.20;;;12.07;;
24745;SDS011;12845;52.042;6.838;2022-12-18T16:15:06;16.23;;;10.88;;
24745;SDS011;12845;52.042;6.838;2022-12-18T16:17:32;17.35;;;11.80;;
24745;SDS011;12845;52.042;6.838;2022-12-18T16:19:57;17.10;;;11.40;;
24745;SDS011;12845;52.042;6.838;2022-12-18T16:22:24;17.38;;;12.73;;
24745;SDS011;12845;52.042;6.838;2022-12-18T16:24:51;17.80;;;12.88;;
24745;SDS011;12845;52.042;6.838;2022-12-18T16:27:17;17.33;;;11.48;;
24745;SDS011;12845;52.042;6.838;2022-12-18T16:29:43;18.27;;;11.60;;
24745;SDS011;12845;52.042;6.838;2022-12-18T16:32:11;17.17;;;13.23;;
24745;SDS011;12845;52.042;6.838;2022-12-18T16:34:38;17.98;;;13.18;;
24745;SDS011;12845;52.042;6.838;2022-12-18T16:37:05;20.85;;;13.13;;
24745;SDS011;12845;52.042;6.838;2022-12-18T16:39:32;18.80;;;14.60;;
24745;SDS011;12845;52.042;6.838;2022-12-18T16:42:05;20.00;;;13.45;;
24745;SDS011;12845;52.042;6.838;2022-12-18T16:44:37;19.38;;;12.15;;
24745;SDS011;12845;52.042;6.838;2022-12-18T16:47:02;17.20;;;13.15;;